sensor_id;sensor_type;location;lat;lon;timestamp;pressure;altitude;pressure_sealevel;temperature;humidity
15193;BME280;7697;51.630;7.484;2023-02-12T00:01:11;103032.06;;;9.42;100.00
15193;BME280;7697;51.630;7.484;2023-02-12T00:06:13;103025.94;;;9.41;100.00
15193;BME280;7697;51.630;7.484;2023-02-12T00:11:19;103014.53;;;9.41;100.00
15193;BME280;7697;51.630;7.484;2023-02-12T00:16:22;103022.47;;;9.41;100.00
15193;BME280;7697;51.630;7.484;2023-02-12T00:21:24;103026.06;;;9.40;100.00
15193;BME280;7697;51.630;7.484;2023-02-12T00:26:27;103023.59;;;9.38;100.00
15193;BME280;7697;51.630;7.484;2023-02-12T00:31:30;103016.50;;;9.39;100.00
15193;BME280;7697;51.630;7.484;2023-02-12T00:36:32;103018.41;;;9.37;100.00
15193;BME280;7697;51.630;7.484;2023-02-12T00:41:35;103020.94;;;9.38;100.00
15193;BME280;7697;51.630;7.484;2023-02-12T00:46:37;103017.59;;;9.36;100.00
15193;BME280;7697;51.630;7.484;2023-02-12T00:51:39;103006.53;;;9.31;100.00
15193;BME280;7697;51.630;7.484;2023-02-12T00:56:42;103001.78;;;9.25;100.00
15193;BME280;7697;51.630;7.484;2023-02-12T01:01:47;103001.66;;;9.27;100.00
15193;BME280;7697;51.630;7.484;2023-02-12T01:06:49;103006.94;;;9.27;100.00
15193;BME280;7697;51.630;7.484;2023-02-12T01:11:52;102998.06;;;9.28;100.00
15193;BME280;7697;51.630;7.484;2023-02-12T01:16:53;103007.91;;;9.26;100.00
15193;BME280;7697;51.630;7.484;2023-02-12T01:21:55;103004.44;;;9.25;100.00
15193;BME280;7697;51.630;7.484;2023-02-12T01:26:58;103003.59;;;9.25;100.00
15193;BME280;7697;51.630;7.484;2023-02-12T01:31:59;103005.53;;;9.23;100.00
15193;BME280;7697;51.630;7.484;2023-02-12T01:37:01;103002.19;;;9.21;100.00
15193;BME280;7697;51.630;7.484;2023-02-12T01:42:05;103009.13;;;9.22;100.00
15193;BME280;7697;51.630;7.484;2023-02-12T01:47:15;103018.91;;;9.21;100.00
15193;BME280;7697;51.630;7.484;2023-02-12T01:52:20;103011.78;;;9.22;100.00
15193;BME280;7697;51.630;7.484;2023-02-12T01:57:27;103009.59;;;9.27;100.00
15193;BME280;7697;51.630;7.484;2023-02-12T02:02:31;103007.19;;;9.24;100.00
15193;BME280;7697;51.630;7.484;2023-02-12T02:07:33;103001.91;;;9.24;100.00
15193;BME280;7697;51.630;7.484;2023-02-12T02:12:36;103012.34;;;9.25;100.00
15193;BME280;7697;51.630;7.484;2023-02-12T02:18:00;102991.63;;;9.21;100.00
15193;BME280;7697;51.630;7.484;2023-02-12T02:23:28;102997.75;;;9.21;100.00
15193;BME280;7697;51.630;7.484;2023-02-12T02:34:07;102986.31;;;9.21;100.00
15193;BME280;7697;51.630;7.484;2023-02-12T02:39:15;102993.53;;;9.19;100.00
15193;BME280;7697;51.630;7.484;2023-02-12T02:44:23;102992.81;;;9.17;100.00
15193;BME280;7697;51.630;7.484;2023-02-12T02:49:32;102991.03;;;9.17;100.00
15193;BME280;7697;51.630;7.484;2023-02-12T02:54:39;102983.22;;;9.16;100.00
15193;BME280;7697;51.630;7.484;2023-02-12T02:59:48;102987.78;;;9.14;100.00
15193;BME280;7697;51.630;7.484;2023-02-12T03:04:55;102978.34;;;9.11;100.00
15193;BME280;7697;51.630;7.484;2023-02-12T03:10:01;102976.78;;;9.09;100.00
15193;BME280;7697;51.630;7.484;2023-02-12T03:15:07;102984.13;;;9.05;100.00
15193;BME280;7697;51.630;7.484;2023-02-12T03:20:16;102981.34;;;9.07;100.00
15193;BME280;7697;51.630;7.484;2023-02-12T03:25:21;102983.16;;;9.06;100.00
15193;BME280;7697;51.630;7.484;2023-02-12T03:30:31;102976.06;;;9.07;100.00
15193;BME280;7697;51.630;7.484;2023-02-12T03:35:46;102980.63;;;9.04;100.00
15193;BME280;7697;51.630;7.484;2023-02-12T03:40:54;102979.50;;;8.97;100.00
15193;BME280;7697;51.630;7.484;2023-02-12T03:45:59;102989.81;;;9.00;100.00
15193;BME280;7697;51.630;7.484;2023-02-12T03:51:13;102997.63;;;9.02;100.00
15193;BME280;7697;51.630;7.484;2023-02-12T03:56:22;102994.25;;;9.00;100.00
15193;BME280;7697;51.630;7.484;2023-02-12T04:01:26;102999.78;;;8.97;100.00
15193;BME280;7697;51.630;7.484;2023-02-12T04:06:29;103002.56;;;8.95;100.00
15193;BME280;7697;51.630;7.484;2023-02-12T04:11:39;103012.88;;;8.98;100.00
15193;BME280;7697;51.630;7.484;2023-02-12T04:16:48;103011.19;;;8.97;100.00
15193;BME280;7697;51.630;7.484;2023-02-12T04:22:04;103015.75;;;8.95;100.00
15193;BME280;7697;51.630;7.484;2023-02-12T04:27:17;103018.41;;;8.95;100.00
15193;BME280;7697;51.630;7.484;2023-02-12T04:32:26;103028.97;;;8.95;100.00
15193;BME280;7697;51.630;7.484;2023-02-12T04:37:35;103029.97;;;8.94;100.00
15193;BME280;7697;51.630;7.484;2023-02-12T04:42:41;103031.31;;;8.89;100.00
15193;BME280;7697;51.630;7.484;2023-02-12T04:47:43;103035.50;;;8.91;100.00
15193;BME280;7697;51.630;7.484;2023-02-12T04:52:46;103041.03;;;8.88;100.00
15193;BME280;7697;51.630;7.484;2023-02-12T04:57:48;103051.47;;;8.90;100.00
15193;BME280;7697;51.630;7.484;2023-02-12T05:02:49;103043.94;;;8.85;100.00
15193;BME280;7697;51.630;7.484;2023-02-12T05:07:52;103045.59;;;8.86;100.00
15193;BME280;7697;51.630;7.484;2023-02-12T05:12:54;103038.91;;;8.82;100.00
15193;BME280;7697;51.630;7.484;2023-02-12T05:17:56;103044.06;;;8.84;100.00
15193;BME280;7697;51.630;7.484;2023-02-12T05:22:59;103045.88;;;8.83;100.00
15193;BME280;7697;51.630;7.484;2023-02-12T05:28:01;103050.56;;;8.80;100.00
15193;BME280;7697;51.630;7.484;2023-02-12T05:33:02;103054.63;;;8.84;100.00
15193;BME280;7697;51.630;7.484;2023-02-12T05:38:06;103053.81;;;8.83;100.00
15193;BME280;7697;51.630;7.484;2023-02-12T05:43:07;103060.88;;;8.83;100.00
15193;BME280;7697;51.630;7.484;2023-02-12T05:48:09;103065.31;;;8.82;100.00
15193;BME280;7697;51.630;7.484;2023-02-12T05:53:12;103063.78;;;8.80;100.00
15193;BME280;7697;51.630;7.484;2023-02-12T05:58:14;103051.91;;;8.74;100.00
15193;BME280;7697;51.630;7.484;2023-02-12T06:03:15;103066.41;;;8.80;100.00
15193;BME280;7697;51.630;7.484;2023-02-12T06:08:18;103061.97;;;8.80;100.00
15193;BME280;7697;51.630;7.484;2023-02-12T06:13:20;103068.22;;;8.79;100.00
15193;BME280;7697;51.630;7.484;2023-02-12T06:18:22;103072.78;;;8.77;100.00
15193;BME280;7697;51.630;7.484;2023-02-12T06:23:25;103068.47;;;8.76;100.00
15193;BME280;7697;51.630;7.484;2023-02-12T06:28:26;103069.44;;;8.75;100.00
15193;BME280;7697;51.630;7.484;2023-02-12T06:33:28;103080.97;;;8.74;100.00
15193;BME280;7697;51.630;7.484;2023-02-12T06:38:33;103090.47;;;8.77;100.00
15193;BME280;7697;51.630;7.484;2023-02-12T06:43:35;103087.94;;;8.75;100.00
15193;BME280;7697;51.630;7.484;2023-02-12T06:48:37;103085.28;;;8.75;100.00
15193;BME280;7697;51.630;7.484;2023-02-12T06:53:41;103085.03;;;8.78;100.00
15193;BME280;7697;51.630;7.484;2023-02-12T06:58:44;103085.19;;;8.77;100.00
15193;BME280;7697;51.630;7.484;2023-02-12T07:03:47;103099.19;;;8.77;100.00
15193;BME280;7697;51.630;7.484;2023-02-12T07:08:51;103089.47;;;8.78;100.00
15193;BME280;7697;51.630;7.484;2023-02-12T07:13:53;103091.66;;;8.73;100.00
15193;BME280;7697;51.630;7.484;2023-02-12T07:18:54;103097.91;;;8.72;100.00
15193;BME280;7697;51.630;7.484;2023-02-12T07:23:58;103103.56;;;8.67;100.00
15193;BME280;7697;51.630;7.484;2023-02-12T07:29:00;103106.91;;;8.69;100.00
15193;BME280;7697;51.630;7.484;2023-02-12T07:34:01;103118.91;;;8.73;100.00
15193;BME280;7697;51.630;7.484;2023-02-12T07:39:04;103116.03;;;8.76;100.00
15193;BME280;7697;51.630;7.484;2023-02-12T07:44:08;103123.47;;;8.82;100.00
15193;BME280;7697;51.630;7.484;2023-02-12T07:49:13;103132.69;;;8.88;100.00
15193;BME280;7697;51.630;7.484;2023-02-12T07:54:16;103131.84;;;8.87;100.00
15193;BME280;7697;51.630;7.484;2023-02-12T07:59:18;103136.03;;;8.90;100.00
15193;BME280;7697;51.630;7.484;2023-02-12T08:04:22;103134.69;;;8.95;100.00
15193;BME280;7697;51.630;7.484;2023-02-12T08:09:27;103147.31;;;9.03;100.00
15193;BME280;7697;51.630;7.484;2023-02-12T08:14:30;103148.59;;;9.09;100.00
15193;BME280;7697;51.630;7.484;2023-02-12T08:19:32;103157.69;;;9.16;100.00
15193;BME280;7697;51.630;7.484;2023-02-12T08:24:35;103163.47;;;9.21;100.00
15193;BME280;7697;51.630;7.484;2023-02-12T08:29:37;103160.44;;;9.25;100.00
15193;BME280;7697;51.630;7.484;2023-02-12T08:34:39;103163.78;;;9.27;100.00
15193;BME280;7697;51.630;7.484;2023-02-12T08:39:42;103171.09;;;9.35;100.00
15193;BME280;7697;51.630;7.484;2023-02-12T08:44:43;103157.03;;;9.34;100.00
15193;BME280;7697;51.630;7.484;2023-02-12T08:49:45;103165.41;;;9.39;100.00
15193;BME280;7697;51.630;7.484;2023-02-12T08:54:48;103172.25;;;9.42;99.83
15193;BME280;7697;51.630;7.484;2023-02-12T08:59:50;103177.19;;;9.47;99.54
15193;BME280;7697;51.630;7.484;2023-02-12T09:04:52;103183.50;;;9.55;99.36
15193;BME280;7697;51.630;7.484;2023-02-12T09:09:55;103189.00;;;9.63;99.43
15193;BME280;7697;51.630;7.484;2023-02-12T09:14:56;103183.41;;;9.66;99.40
15193;BME280;7697;51.630;7.484;2023-02-12T09:19:59;103193.41;;;9.74;98.88
15193;BME280;7697;51.630;7.484;2023-02-12T09:25:03;103194.22;;;9.74;98.76
15193;BME280;7697;51.630;7.484;2023-02-12T09:30:06;103199.13;;;9.79;98.16
15193;BME280;7697;51.630;7.484;2023-02-12T09:35:08;103190.09;;;9.82;98.56
15193;BME280;7697;51.630;7.484;2023-02-12T09:40:18;103201.84;;;9.89;98.30
15193;BME280;7697;51.630;7.484;2023-02-12T09:45:22;103202.81;;;9.88;98.19
15193;BME280;7697;51.630;7.484;2023-02-12T09:50:32;103196.94;;;9.84;98.00
15193;BME280;7697;51.630;7.484;2023-02-12T09:55:38;103204.59;;;9.87;97.82
15193;BME280;7697;51.630;7.484;2023-02-12T10:00:40;103203.28;;;9.93;97.84
15193;BME280;7697;51.630;7.484;2023-02-12T10:05:47;103207.06;;;10.00;97.03
15193;BME280;7697;51.630;7.484;2023-02-12T10:10:52;103202.88;;;9.97;96.85
15193;BME280;7697;51.630;7.484;2023-02-12T10:16:08;103204.53;;;9.98;96.63
15193;BME280;7697;51.630;7.484;2023-02-12T10:21:22;103198.84;;;10.03;96.25
15193;BME280;7697;51.630;7.484;2023-02-12T10:26:32;103203.63;;;10.09;96.09
15193;BME280;7697;51.630;7.484;2023-02-12T10:31:39;103205.03;;;10.13;95.36
15193;BME280;7697;51.630;7.484;2023-02-12T10:36:43;103208.50;;;10.25;94.85
15193;BME280;7697;51.630;7.484;2023-02-12T10:41:51;103207.41;;;10.27;94.25
15193;BME280;7697;51.630;7.484;2023-02-12T10:46:55;103204.22;;;10.33;94.25
15193;BME280;7697;51.630;7.484;2023-02-12T10:52:07;103188.94;;;10.46;94.20
15193;BME280;7697;51.630;7.484;2023-02-12T10:57:16;103196.72;;;10.48;93.55
15193;BME280;7697;51.630;7.484;2023-02-12T11:02:21;103183.78;;;10.45;93.15
15193;BME280;7697;51.630;7.484;2023-02-12T11:07:24;103184.88;;;10.42;92.71
15193;BME280;7697;51.630;7.484;2023-02-12T11:12:31;103188.78;;;10.48;93.01
15193;BME280;7697;51.630;7.484;2023-02-12T11:17:36;103172.25;;;10.56;92.90
15193;BME280;7697;51.630;7.484;2023-02-12T11:22:48;103179.63;;;10.62;92.48
15193;BME280;7697;51.630;7.484;2023-02-12T11:28:13;103180.34;;;10.64;91.79
15193;BME280;7697;51.630;7.484;2023-02-12T11:33:27;103180.34;;;10.64;91.37
15193;BME280;7697;51.630;7.484;2023-02-12T11:38:35;103171.59;;;10.73;91.90
15193;BME280;7697;51.630;7.484;2023-02-12T11:43:39;103167.69;;;10.77;92.00
15193;BME280;7697;51.630;7.484;2023-02-12T11:48:44;103167.13;;;10.73;90.97
15193;BME280;7697;51.630;7.484;2023-02-12T11:53:50;103162.94;;;10.71;91.23
15193;BME280;7697;51.630;7.484;2023-02-12T11:59:10;103160.81;;;10.74;90.59
15193;BME280;7697;51.630;7.484;2023-02-12T12:04:18;103160.16;;;10.82;90.80
15193;BME280;7697;51.630;7.484;2023-02-12T12:09:24;103152.47;;;10.79;90.00
15193;BME280;7697;51.630;7.484;2023-02-12T12:14:32;103142.47;;;10.82;90.37
15193;BME280;7697;51.630;7.484;2023-02-12T12:20:00;103143.84;;;10.96;89.94
15193;BME280;7697;51.630;7.484;2023-02-12T12:25:09;103129.59;;;10.87;89.25
15193;BME280;7697;51.630;7.484;2023-02-12T12:30:21;103128.53;;;11.00;89.66
15193;BME280;7697;51.630;7.484;2023-02-12T12:35:31;103129.50;;;11.08;90.17
15193;BME280;7697;51.630;7.484;2023-02-12T12:40:44;103120.97;;;11.14;89.04
15193;BME280;7697;51.630;7.484;2023-02-12T12:46:07;103118.19;;;11.16;89.26
15193;BME280;7697;51.630;7.484;2023-02-12T12:51:22;103105.75;;;11.07;88.90
15193;BME280;7697;51.630;7.484;2023-02-12T12:56:48;103109.78;;;11.20;88.78
15193;BME280;7697;51.630;7.484;2023-02-12T13:07:53;103090.53;;;11.18;89.21
15193;BME280;7697;51.630;7.484;2023-02-12T13:13:14;103088.03;;;11.17;88.71
15193;BME280;7697;51.630;7.484;2023-02-12T13:18:26;103086.75;;;11.21;88.73
15193;BME280;7697;51.630;7.484;2023-02-12T13:23:38;103083.56;;;11.27;88.88
15193;BME280;7697;51.630;7.484;2023-02-12T13:28:48;103076.72;;;11.24;88.65
15193;BME280;7697;51.630;7.484;2023-02-12T13:33:53;103071.28;;;11.16;88.26
15193;BME280;7697;51.630;7.484;2023-02-12T13:39:02;103070.00;;;11.20;88.35
15193;BME280;7697;51.630;7.484;2023-02-12T13:44:12;103073.75;;;11.27;88.22
15193;BME280;7697;51.630;7.484;2023-02-12T13:49:22;103077.56;;;11.25;88.05
15193;BME280;7697;51.630;7.484;2023-02-12T13:54:51;103075.19;;;11.22;87.64
15193;BME280;7697;51.630;7.484;2023-02-12T13:59:56;103071.28;;;11.16;87.98
15193;BME280;7697;51.630;7.484;2023-02-12T14:04:59;103070.72;;;11.22;88.34
15193;BME280;7697;51.630;7.484;2023-02-12T14:10:05;103069.47;;;11.26;88.25
15193;BME280;7697;51.630;7.484;2023-02-12T14:15:10;103065.81;;;11.27;88.13
15193;BME280;7697;51.630;7.484;2023-02-12T14:20:27;103079.91;;;11.28;88.09
15193;BME280;7697;51.630;7.484;2023-02-12T14:25:41;103075.31;;;11.30;88.12
15193;BME280;7697;51.630;7.484;2023-02-12T14:30:44;103070.13;;;11.28;88.18
15193;BME280;7697;51.630;7.484;2023-02-12T14:35:46;103075.44;;;11.28;88.35
15193;BME280;7697;51.630;7.484;2023-02-12T14:40:50;103074.31;;;11.31;88.43
15193;BME280;7697;51.630;7.484;2023-02-12T14:45:53;103068.19;;;11.31;88.54
15193;BME280;7697;51.630;7.484;2023-02-12T14:50:56;103078.78;;;11.31;88.42
15193;BME280;7697;51.630;7.484;2023-02-12T14:55:59;103075.75;;;11.25;88.44
15193;BME280;7697;51.630;7.484;2023-02-12T15:01:03;103075.19;;;11.22;88.46
15193;BME280;7697;51.630;7.484;2023-02-12T15:06:10;103071.69;;;11.21;88.72
15193;BME280;7697;51.630;7.484;2023-02-12T15:11:21;103063.31;;;11.16;88.87
15193;BME280;7697;51.630;7.484;2023-02-12T15:16:31;103058.69;;;11.18;88.42
15193;BME280;7697;51.630;7.484;2023-02-12T15:21:34;103057.59;;;11.21;88.75
15193;BME280;7697;51.630;7.484;2023-02-12T15:26:42;103060.09;;;11.22;88.64
15193;BME280;7697;51.630;7.484;2023-02-12T15:31:49;103049.63;;;11.21;88.26
15193;BME280;7697;51.630;7.484;2023-02-12T15:36:54;103044.44;;;11.19;88.64
15193;BME280;7697;51.630;7.484;2023-02-12T15:41:58;103049.94;;;11.18;88.52
15193;BME280;7697;51.630;7.484;2023-02-12T15:47:08;103046.44;;;11.17;88.61
15193;BME280;7697;51.630;7.484;2023-02-12T15:52:16;103044.91;;;11.15;88.56
15193;BME280;7697;51.630;7.484;2023-02-12T15:57:22;103036.50;;;11.10;88.27
15193;BME280;7697;51.630;7.484;2023-02-12T16:02:26;103037.22;;;11.02;88.58
15193;BME280;7697;51.630;7.484;2023-02-12T16:07:32;103039.88;;;11.02;88.56
15193;BME280;7697;51.630;7.484;2023-02-12T16:12:36;103034.88;;;10.99;88.65
15193;BME280;7697;51.630;7.484;2023-02-12T16:17:45;103029.84;;;10.96;88.28
15193;BME280;7697;51.630;7.484;2023-02-12T16:22:48;103032.09;;;10.91;88.21
15193;BME280;7697;51.630;7.484;2023-02-12T16:27:57;103035.72;;;10.90;88.54
15193;BME280;7697;51.630;7.484;2023-02-12T16:33:00;103036.13;;;10.85;87.88
15193;BME280;7697;51.630;7.484;2023-02-12T16:43:29;103050.66;;;10.81;88.86
15193;BME280;7697;51.630;7.484;2023-02-12T16:48:36;103047.28;;;10.79;88.19
15193;BME280;7697;51.630;7.484;2023-02-12T16:53:39;103047.69;;;10.75;87.86
15193;BME280;7697;51.630;7.484;2023-02-12T16:58:48;103048.53;;;10.75;87.94
15193;BME280;7697;51.630;7.484;2023-02-12T17:03:51;103061.66;;;10.77;87.88
15193;BME280;7697;51.630;7.484;2023-02-12T17:08:53;103062.63;;;10.76;87.84
15193;BME280;7697;51.630;7.484;2023-02-12T17:13:57;103060.81;;;10.76;88.00
15193;BME280;7697;51.630;7.484;2023-02-12T17:18:58;103061.25;;;10.72;87.98
15193;BME280;7697;51.630;7.484;2023-02-12T17:24:00;103058.03;;;10.68;88.67
15193;BME280;7697;51.630;7.484;2023-02-12T17:29:03;103059.84;;;10.68;88.50
15193;BME280;7697;51.630;7.484;2023-02-12T17:34:05;103072.25;;;10.67;88.78
15193;BME280;7697;51.630;7.484;2023-02-12T17:39:10;103065.41;;;10.65;89.04
15193;BME280;7697;51.630;7.484;2023-02-12T17:44:14;103074.88;;;10.67;89.04
15193;BME280;7697;51.630;7.484;2023-02-12T17:49:15;103081.28;;;10.65;89.65
15193;BME280;7697;51.630;7.484;2023-02-12T17:54:17;103074.34;;;10.54;89.50
15193;BME280;7697;51.630;7.484;2023-02-12T17:59:20;103080.47;;;10.55;89.39
15193;BME280;7697;51.630;7.484;2023-02-12T18:04:22;103081.84;;;10.49;89.72
15193;BME280;7697;51.630;7.484;2023-02-12T18:09:23;103078.22;;;10.50;89.56
15193;BME280;7697;51.630;7.484;2023-02-12T18:14:26;103079.91;;;10.51;89.62
15193;BME280;7697;51.630;7.484;2023-02-12T18:19:28;103081.72;;;10.50;90.10
15193;BME280;7697;51.630;7.484;2023-02-12T18:24:30;103082.69;;;10.49;90.25
15193;BME280;7697;51.630;7.484;2023-02-12T18:29:35;103081.13;;;10.47;90.18
15193;BME280;7697;51.630;7.484;2023-02-12T18:34:36;103078.91;;;10.42;89.96
15193;BME280;7697;51.630;7.484;2023-02-12T18:39:38;103086.84;;;10.42;90.44
15193;BME280;7697;51.630;7.484;2023-02-12T18:44:41;103085.16;;;10.41;90.22
15193;BME280;7697;51.630;7.484;2023-02-12T18:49:43;103075.13;;;10.35;90.50
15193;BME280;7697;51.630;7.484;2023-02-12T18:54:44;103075.84;;;10.37;90.93
15193;BME280;7697;51.630;7.484;2023-02-12T18:59:47;103066.59;;;10.32;90.33
15193;BME280;7697;51.630;7.484;2023-02-12T19:04:49;103077.19;;;10.32;90.44
15193;BME280;7697;51.630;7.484;2023-02-12T19:09:51;103079.84;;;10.32;90.60
15193;BME280;7697;51.630;7.484;2023-02-12T19:14:54;103079.28;;;10.28;90.14
15193;BME280;7697;51.630;7.484;2023-02-12T19:19:55;103076.19;;;10.23;90.38
15193;BME280;7697;51.630;7.484;2023-02-12T19:24:57;103081.25;;;10.26;90.65
15193;BME280;7697;51.630;7.484;2023-02-12T19:30:00;103073.28;;;10.26;90.22
15193;BME280;7697;51.630;7.484;2023-02-12T19:35:02;103081.09;;;10.28;90.68
15193;BME280;7697;51.630;7.484;2023-02-12T19:40:05;103070.47;;;10.18;91.00
15193;BME280;7697;51.630;7.484;2023-02-12T19:45:08;103073.47;;;10.13;91.08
15193;BME280;7697;51.630;7.484;2023-02-12T19:50:10;103061.63;;;10.08;90.84
15193;BME280;7697;51.630;7.484;2023-02-12T19:55:12;103066.94;;;10.08;91.17
15193;BME280;7697;51.630;7.484;2023-02-12T20:00:15;103059.97;;;10.07;91.22
15193;BME280;7697;51.630;7.484;2023-02-12T20:05:17;103056.59;;;10.05;91.39
15193;BME280;7697;51.630;7.484;2023-02-12T20:10:18;103051.88;;;10.08;91.52
15193;BME280;7697;51.630;7.484;2023-02-12T20:15:22;103063.31;;;10.09;91.70
15193;BME280;7697;51.630;7.484;2023-02-12T20:20:24;103067.78;;;10.08;91.44
15193;BME280;7697;51.630;7.484;2023-02-12T20:25:26;103065.66;;;10.12;91.49
15193;BME280;7697;51.630;7.484;2023-02-12T20:30:30;103064.69;;;10.13;91.39
15193;BME280;7697;51.630;7.484;2023-02-12T20:35:32;103065.25;;;10.07;91.68
15193;BME280;7697;51.630;7.484;2023-02-12T20:40:36;103064.66;;;10.03;91.44
15193;BME280;7697;51.630;7.484;2023-02-12T20:45:39;103076.09;;;10.04;91.68
15193;BME280;7697;51.630;7.484;2023-02-12T20:50:41;103045.59;;;10.00;91.59
15193;BME280;7697;51.630;7.484;2023-02-12T20:55:42;103057.84;;;10.01;91.74
15193;BME280;7697;51.630;7.484;2023-02-12T21:00:45;103046.81;;;9.96;92.10
15193;BME280;7697;51.630;7.484;2023-02-12T21:05:47;103060.63;;;9.99;92.00
15193;BME280;7697;51.630;7.484;2023-02-12T21:10:49;103050.44;;;9.95;92.29
15193;BME280;7697;51.630;7.484;2023-02-12T21:16:07;103055.47;;;9.98;91.93
15193;BME280;7697;51.630;7.484;2023-02-12T21:21:13;103056.69;;;9.94;92.76
15193;BME280;7697;51.630;7.484;2023-02-12T21:26:16;103055.72;;;9.95;92.20
15193;BME280;7697;51.630;7.484;2023-02-12T21:31:22;103049.88;;;9.91;92.54
15193;BME280;7697;51.630;7.484;2023-02-12T21:36:25;103048.56;;;9.86;92.87
15193;BME280;7697;51.630;7.484;2023-02-12T21:41:29;103052.91;;;9.87;92.78
15193;BME280;7697;51.630;7.484;2023-02-12T21:46:34;103058.19;;;9.87;92.78
15193;BME280;7697;51.630;7.484;2023-02-12T21:51:37;103052.91;;;9.87;92.94
15193;BME280;7697;51.630;7.484;2023-02-12T21:56:40;103054.59;;;9.88;93.15
15193;BME280;7697;51.630;7.484;2023-02-12T22:01:45;103053.34;;;9.92;92.65
15193;BME280;7697;51.630;7.484;2023-02-12T22:06:49;103046.50;;;9.89;93.29
15193;BME280;7697;51.630;7.484;2023-02-12T22:11:51;103059.50;;;9.92;92.69
15193;BME280;7697;51.630;7.484;2023-02-12T22:16:54;103057.41;;;9.96;93.23
15193;BME280;7697;51.630;7.484;2023-02-12T22:21:56;103045.13;;;9.95;93.14
15193;BME280;7697;51.630;7.484;2023-02-12T22:26:58;103038.31;;;9.92;93.35
15193;BME280;7697;51.630;7.484;2023-02-12T22:32:01;103036.75;;;9.90;93.31
15193;BME280;7697;51.630;7.484;2023-02-12T22:37:02;103037.88;;;9.87;93.23
15193;BME280;7697;51.630;7.484;2023-02-12T22:42:04;103047.34;;;9.90;93.31
15193;BME280;7697;51.630;7.484;2023-02-12T22:47:08;103032.69;;;9.86;92.99
15193;BME280;7697;51.630;7.484;2023-02-12T22:52:09;103035.63;;;9.83;93.31
15193;BME280;7697;51.630;7.484;2023-02-12T22:57:11;103045.38;;;9.82;93.70
15193;BME280;7697;51.630;7.484;2023-02-12T23:02:14;103033.38;;;9.78;93.46
15193;BME280;7697;51.630;7.484;2023-02-12T23:07:16;103029.88;;;9.77;93.99
15193;BME280;7697;51.630;7.484;2023-02-12T23:12:17;103028.63;;;9.72;93.70
15193;BME280;7697;51.630;7.484;2023-02-12T23:17:20;103030.56;;;9.70;93.58
15193;BME280;7697;51.630;7.484;2023-02-12T23:22:22;103040.88;;;9.73;94.09
15193;BME280;7697;51.630;7.484;2023-02-12T23:27:24;103024.41;;;9.69;94.39
15193;BME280;7697;51.630;7.484;2023-02-12T23:32:27;103018.41;;;9.67;94.35
15193;BME280;7697;51.630;7.484;2023-02-12T23:37:28;103011.44;;;9.66;94.40
15193;BME280;7697;51.630;7.484;2023-02-12T23:42:30;103019.97;;;9.70;94.21
15193;BME280;7697;51.630;7.484;2023-02-12T23:47:33;103015.22;;;9.64;94.82
15193;BME280;7697;51.630;7.484;2023-02-12T23:52:35;103007.28;;;9.64;94.59
15193;BME280;7697;51.630;7.484;2023-02-12T23:57:36;102999.34;;;9.64;94.43
